createdAt,value
2018-08-31T00:01:40.197Z,68.57
2018-08-31T00:04:52.176Z,69.85
2018-08-31T00:07:38.467Z,70.13
2018-08-31T00:12:50.721Z,70.95
2018-08-31T00:15:20.046Z,72.57
2018-08-31T00:17:49.304Z,71.96
2018-08-31T00:20:19.046Z,71.20
2018-08-31T00:22:48.432Z,71.16
2018-08-31T00:26:06.585Z,70.34
2018-08-31T00:29:08.238Z,71.68
2018-08-31T00:34:12.802Z,72.14
2018-08-31T00:38:09.717Z,73.42
2018-08-31T00:41:31.630Z,72.91
2018-08-31T00:46:22.023Z,72.85
2018-08-31T00:48:51.321Z,72.51
2018-08-31T00:51:20.769Z,72.71
2018-08-31T00:53:50.089Z,72.01
2018-08-31T00:56:19.463Z,71.53
2018-08-31T00:58:48.828Z,71.90
2018-08-31T01:01:18.284Z,71.91
2018-08-31T01:03:47.641Z,71.85
2018-08-31T01:06:16.949Z,71.71
2018-08-31T01:08:46.353Z,72.17
2018-08-31T01:11:15.716Z,72.14
2018-08-31T01:13:45.088Z,72.19
2018-08-31T01:16:14.406Z,72.25
2018-08-31T01:18:43.751Z,71.94
2018-08-31T01:21:13.054Z,72.17
2018-08-31T01:23:42.501Z,72.10
2018-08-31T01:26:12.134Z,71.68
2018-08-31T01:28:41.470Z,72.38
2018-08-31T01:31:10.817Z,71.78
2018-08-31T01:33:40.226Z,71.81
2018-08-31T01:36:09.592Z,71.34
2018-08-31T01:38:38.883Z,72.07
2018-08-31T01:41:08.429Z,71.48
2018-08-31T01:43:37.712Z,71.32
2018-08-31T01:46:06.980Z,71.93
2018-08-31T01:48:36.386Z,71.43
2018-08-31T01:51:10.927Z,72.28
2018-08-31T01:53:40.370Z,72.66
2018-08-31T01:56:09.748Z,72.90
2018-08-31T01:58:39.074Z,73.13
2018-08-31T02:01:08.422Z,73.27
2018-08-31T02:03:37.980Z,73.22
2018-08-31T02:06:07.530Z,73.02
2018-08-31T02:08:41.564Z,72.89
2018-08-31T02:11:10.887Z,73.96
2018-08-31T02:13:40.233Z,74.07
2018-08-31T02:16:10.184Z,73.49
2018-08-31T02:18:39.482Z,73.64
2018-08-31T02:21:08.748Z,73.87
2018-08-31T02:23:38.392Z,74.56
2018-08-31T02:26:07.659Z,74.04
2018-08-31T02:28:36.925Z,73.49
2018-08-31T02:31:06.599Z,74.72
2018-08-31T02:33:36.260Z,75.40
2018-08-31T02:36:05.670Z,75.18
2018-08-31T02:38:35.051Z,74.75
2018-08-31T02:41:05.343Z,74.71
2018-08-31T02:43:34.693Z,75.32
2018-08-31T02:46:04.035Z,75.98
2018-08-31T02:48:33.361Z,75.45
2018-08-31T02:51:02.775Z,75.40
2018-08-31T02:53:32.383Z,75.29
2018-08-31T02:56:01.714Z,74.66
2018-08-31T02:58:31.128Z,74.34
2018-08-31T03:01:00.484Z,74.96
2018-08-31T03:03:29.849Z,74.42
2018-08-31T03:05:59.155Z,74.67
2018-08-31T03:08:28.506Z,74.46
2018-08-31T03:10:57.815Z,74.06
2018-08-31T03:13:27.155Z,74.44
2018-08-31T03:15:56.791Z,74.32
2018-08-31T03:18:26.146Z,74.65
2018-08-31T03:20:57.793Z,75.40
2018-08-31T03:23:27.234Z,74.55
2018-08-31T03:25:56.780Z,74.45
2018-08-31T03:28:26.221Z,74.60
2018-08-31T03:30:55.625Z,74.32
2018-08-31T03:33:24.923Z,74.31
2018-08-31T03:35:54.229Z,75.05
2018-08-31T03:38:23.628Z,75.24
2018-08-31T03:40:52.947Z,75.75
2018-08-31T03:43:22.292Z,76.09
2018-08-31T03:45:51.609Z,74.68
2018-08-31T03:48:20.899Z,74.68
2018-08-31T03:50:50.211Z,74.84
2018-08-31T03:53:19.544Z,74.71
2018-08-31T03:55:48.792Z,74.85
2018-08-31T03:58:18.121Z,75.09
2018-08-31T04:00:47.680Z,75.20
2018-08-31T04:03:16.974Z,75.36
2018-08-31T04:05:46.301Z,74.67
2018-08-31T04:08:15.622Z,74.11
2018-08-31T04:10:44.907Z,74.10
2018-08-31T04:13:14.308Z,73.63
2018-08-31T04:15:43.711Z,74.03
2018-08-31T04:18:13.275Z,73.94
2018-08-31T04:20:42.797Z,73.89
2018-08-31T04:23:12.429Z,74.05
2018-08-31T04:25:41.776Z,74.50
2018-08-31T04:28:11.242Z,74.44
2018-08-31T04:30:40.579Z,74.72
2018-08-31T04:33:09.902Z,74.58
2018-08-31T04:35:39.245Z,74.40
2018-08-31T04:38:08.612Z,75.45
2018-08-31T04:40:37.932Z,76.00
2018-08-31T04:43:07.367Z,76.25
2018-08-31T04:45:37.166Z,75.78
2018-08-31T04:48:06.639Z,75.85
2018-08-31T04:50:35.940Z,75.36
2018-08-31T04:53:05.512Z,75.36
2018-08-31T04:55:34.856Z,75.06
2018-08-31T04:58:04.178Z,74.66
2018-08-31T05:00:33.995Z,74.73
2018-08-31T05:03:03.317Z,74.68
2018-08-31T05:05:32.616Z,74.17
2018-08-31T05:08:02.339Z,74.34
2018-08-31T05:10:31.853Z,74.13
2018-08-31T05:13:01.195Z,73.36
2018-08-31T05:15:30.560Z,72.96
2018-08-31T05:17:59.994Z,73.07
2018-08-31T05:20:29.320Z,73.01
2018-08-31T05:22:58.679Z,71.91
2018-08-31T05:25:28.004Z,71.69
2018-08-31T05:27:57.474Z,71.39
2018-08-31T05:30:26.908Z,70.96
2018-08-31T05:32:56.414Z,71.16
2018-08-31T05:35:25.747Z,71.09
2018-08-31T05:37:55.047Z,70.42
2018-08-31T05:40:24.346Z,70.88
2018-08-31T05:42:53.679Z,70.15
2018-08-31T05:45:23.008Z,69.84
2018-08-31T05:47:52.311Z,69.51
2018-08-31T05:50:21.616Z,69.25
2018-08-31T05:52:51.019Z,68.93
2018-08-31T05:55:20.343Z,68.62
2018-08-31T05:57:49.682Z,68.54
2018-08-31T06:00:19.087Z,68.62
2018-08-31T06:02:48.446Z,68.15
2018-08-31T06:05:17.804Z,67.99
2018-08-31T06:07:47.429Z,66.99
2018-08-31T06:10:16.797Z,67.35
2018-08-31T06:12:46.231Z,66.52
2018-08-31T06:15:16.098Z,66.53
2018-08-31T06:17:45.563Z,66.48
2018-08-31T06:20:14.918Z,65.50
2018-08-31T06:22:44.304Z,65.28
2018-08-31T06:25:13.606Z,64.24
2018-08-31T06:27:43.317Z,64.91
2018-08-31T06:30:12.764Z,65.12
2018-08-31T06:32:42.111Z,64.69
2018-08-31T06:35:11.616Z,64.24
2018-08-31T06:37:41.254Z,64.42
2018-08-31T06:40:10.662Z,63.14
2018-08-31T06:42:40.022Z,62.61
2018-08-31T06:45:09.556Z,62.62
2018-08-31T06:47:39.061Z,61.41
2018-08-31T06:50:08.540Z,61.08
2018-08-31T06:52:37.994Z,60.25
2018-08-31T06:55:07.322Z,59.65
2018-08-31T06:57:36.699Z,59.59
2018-08-31T07:00:07.443Z,59.13
2018-08-31T07:02:36.816Z,57.63
2018-08-31T07:05:07.290Z,57.73
2018-08-31T07:07:37.368Z,57.86
2018-08-31T07:10:06.924Z,57.04
2018-08-31T07:12:36.420Z,56.48
2018-08-31T07:15:07.034Z,54.86
2018-08-31T07:17:36.456Z,55.24
2018-08-31T07:20:06.121Z,55.05
2018-08-31T07:22:36.458Z,54.27
2018-08-31T07:25:05.961Z,52.89
2018-08-31T07:27:35.365Z,51.61
2018-08-31T07:30:04.919Z,51.50
2018-08-31T07:32:34.782Z,49.90
2018-08-31T07:35:04.316Z,49.17
2018-08-31T07:37:33.709Z,48.46
2018-08-31T07:40:03.216Z,47.18
2018-08-31T07:42:32.773Z,47.38
2018-08-31T07:45:02.328Z,46.69
2018-08-31T07:47:31.690Z,47.19
2018-08-31T07:50:01.157Z,45.78
2018-08-31T07:52:30.652Z,45.55
2018-08-31T07:55:00.195Z,43.69
2018-08-31T07:57:29.748Z,42.37
2018-08-31T07:59:59.279Z,42.04
2018-08-31T08:02:29.206Z,42.04
2018-08-31T08:04:58.665Z,41.62
2018-08-31T08:07:28.527Z,41.12
2018-08-31T08:09:57.944Z,41.38
2018-08-31T08:12:27.329Z,41.07
2018-08-31T08:14:56.799Z,40.24
2018-08-31T08:17:26.357Z,40.71
2018-08-31T08:19:55.838Z,40.54
2018-08-31T08:22:25.479Z,39.65
2018-08-31T08:24:54.839Z,39.42
2018-08-31T08:27:24.170Z,37.91
2018-08-31T08:29:53.652Z,36.51
2018-08-31T08:32:23.047Z,35.78
2018-08-31T08:34:52.343Z,35.57
2018-08-31T08:37:21.776Z,36.79
2018-08-31T08:39:51.089Z,35.38
2018-08-31T08:42:20.513Z,34.15
2018-08-31T08:44:49.861Z,34.35
2018-08-31T08:47:19.303Z,32.84
2018-08-31T08:49:48.674Z,32.42
2018-08-31T08:52:18.911Z,31.18
2018-08-31T08:54:48.272Z,32.89
2018-08-31T08:57:17.671Z,31.82
2018-08-31T08:59:47.060Z,31.07
2018-08-31T09:02:16.694Z,31.50
2018-08-31T09:04:46.107Z,32.41
2018-08-31T09:07:17.432Z,32.13
2018-08-31T09:09:47.974Z,31.91
2018-08-31T09:12:20.738Z,30.01
2018-08-31T09:14:50.096Z,28.67
2018-08-31T09:17:19.458Z,31.16
2018-08-31T09:19:48.984Z,31.45
2018-08-31T09:22:18.340Z,29.33
2018-08-31T09:24:47.709Z,28.22
2018-08-31T09:27:17.150Z,26.82
2018-08-31T09:29:46.512Z,26.04
2018-08-31T09:32:21.489Z,25.91
2018-08-31T09:34:52.670Z,24.69
2018-08-31T09:37:22.137Z,24.86
2018-08-31T09:39:51.467Z,22.81
2018-08-31T09:42:20.896Z,23.32
2018-08-31T09:44:50.362Z,23.69
2018-08-31T09:47:19.806Z,21.42
2018-08-31T09:49:49.310Z,22.09
2018-08-31T09:52:19.278Z,22.10
2018-08-31T09:54:48.622Z,21.74
2018-08-31T09:57:18.094Z,21.91
2018-08-31T09:59:47.474Z,22.25
2018-08-31T10:02:22.318Z,23.91
2018-08-31T10:04:51.675Z,27.05
2018-08-31T10:07:21.106Z,28.38
2018-08-31T10:09:50.675Z,26.42
2018-08-31T10:12:20.346Z,26.08
2018-08-31T10:14:49.772Z,26.27
2018-08-31T10:17:24.063Z,24.49
2018-08-31T10:19:53.731Z,24.05
2018-08-31T10:22:23.278Z,22.96
2018-08-31T10:24:52.638Z,23.06
2018-08-31T10:27:22.099Z,22.13
2018-08-31T10:29:51.489Z,22.97
2018-08-31T10:32:21.232Z,22.89
2018-08-31T10:34:50.627Z,22.98
2018-08-31T10:37:19.968Z,21.41
2018-08-31T10:39:49.409Z,19.85
2018-08-31T10:42:18.814Z,20.18
2018-08-31T10:44:48.140Z,20.30
2018-08-31T10:47:17.516Z,20.76
2018-08-31T10:49:46.858Z,22.57
2018-08-31T10:52:16.449Z,22.25
2018-08-31T10:54:46.403Z,21.40
2018-08-31T10:57:15.786Z,21.48
2018-08-31T10:59:45.740Z,23.91
2018-08-31T11:02:15.211Z,24.84
2018-08-31T11:04:44.827Z,24.37
2018-08-31T11:07:14.338Z,24.02
2018-08-31T11:09:44.255Z,24.65
2018-08-31T11:12:13.883Z,22.97
2018-08-31T11:14:43.292Z,22.64
2018-08-31T11:17:12.856Z,24.75
2018-08-31T11:19:42.255Z,25.29
2018-08-31T11:22:11.668Z,26.72
2018-08-31T11:24:41.128Z,28.03
2018-08-31T11:27:10.659Z,29.05
2018-08-31T11:29:40.122Z,28.86
2018-08-31T11:32:09.500Z,28.37
2018-08-31T11:34:38.942Z,28.47
2018-08-31T11:37:08.304Z,28.57
2018-08-31T11:39:38.048Z,27.46
2018-08-31T11:42:07.489Z,26.00
2018-08-31T11:44:36.917Z,25.21
2018-08-31T11:47:06.382Z,22.01
2018-08-31T11:49:35.798Z,22.35
2018-08-31T11:52:05.167Z,21.57
2018-08-31T11:54:35.231Z,19.98
2018-08-31T11:57:04.604Z,19.67
2018-08-31T11:59:33.932Z,20.13
2018-08-31T12:02:04.098Z,21.64
2018-08-31T12:04:33.395Z,22.09
2018-08-31T12:07:02.724Z,21.88
2018-08-31T12:09:32.050Z,21.49
2018-08-31T12:12:04.386Z,22.80
2018-08-31T12:14:33.986Z,23.75
2018-08-31T12:17:03.720Z,24.34
2018-08-31T12:19:33.067Z,22.54
2018-08-31T12:22:02.775Z,22.45
2018-08-31T12:24:32.251Z,23.24
2018-08-31T12:27:01.580Z,23.80
2018-08-31T12:29:30.953Z,21.69
2018-08-31T12:32:00.235Z,20.97
2018-08-31T12:34:29.588Z,21.19
2018-08-31T12:36:58.944Z,21.77
2018-08-31T12:39:28.365Z,22.02
2018-08-31T12:41:57.715Z,22.15
2018-08-31T12:44:27.498Z,23.71
2018-08-31T12:46:56.764Z,25.24
2018-08-31T12:49:26.063Z,24.84
2018-08-31T12:51:55.437Z,25.33
2018-08-31T12:54:24.764Z,26.48
2018-08-31T12:56:54.175Z,23.66
2018-08-31T12:59:23.618Z,23.24
2018-08-31T13:01:52.952Z,22.38
2018-08-31T13:04:22.297Z,22.61
2018-08-31T13:06:52.074Z,21.92
2018-08-31T13:09:21.482Z,21.75
2018-08-31T13:11:50.807Z,23.05
2018-08-31T13:14:20.167Z,23.78
2018-08-31T13:16:49.459Z,24.17
2018-08-31T13:19:18.791Z,23.01
2018-08-31T13:21:48.178Z,23.83
2018-08-31T13:24:17.762Z,24.08
2018-08-31T13:26:47.171Z,24.41
2018-08-31T13:29:17.028Z,25.43
2018-08-31T13:31:46.436Z,25.35
2018-08-31T13:34:15.854Z,25.13
2018-08-31T13:36:45.222Z,26.31
2018-08-31T13:39:14.562Z,26.15
2018-08-31T13:41:43.839Z,26.89
2018-08-31T13:44:13.182Z,26.64
2018-08-31T13:46:42.672Z,27.41
2018-08-31T13:49:12.191Z,28.02
2018-08-31T13:51:41.820Z,27.86
2018-08-31T13:54:11.274Z,28.11
2018-08-31T13:56:40.678Z,28.70
2018-08-31T13:59:10.087Z,26.94
2018-08-31T14:01:39.454Z,27.24
2018-08-31T14:04:08.782Z,28.19
2018-08-31T14:06:38.147Z,27.21
2018-08-31T14:09:08.258Z,27.64
2018-08-31T14:11:37.623Z,28.29
2018-08-31T14:14:07.324Z,28.54
2018-08-31T14:16:37.361Z,28.89
2018-08-31T14:19:08.625Z,29.54
2018-08-31T14:21:38.342Z,29.44
2018-08-31T14:24:08.367Z,29.72
2018-08-31T14:26:37.779Z,29.28
2018-08-31T14:29:07.223Z,29.01
2018-08-31T14:31:36.594Z,28.96
2018-08-31T14:34:06.442Z,29.07
2018-08-31T14:36:35.900Z,29.77
2018-08-31T14:39:07.871Z,29.14
2018-08-31T14:41:37.443Z,28.85
2018-08-31T14:44:08.680Z,28.73
2018-08-31T14:46:37.838Z,29.13
2018-08-31T14:49:08.227Z,29.03
2018-08-31T14:51:37.656Z,29.45
2018-08-31T14:54:07.153Z,29.16
2018-08-31T14:56:36.556Z,29.42
2018-08-31T14:59:05.921Z,30.29
2018-08-31T15:01:35.311Z,31.15
2018-08-31T15:04:04.776Z,31.11
2018-08-31T15:06:34.181Z,31.23
2018-08-31T15:09:03.737Z,30.44
2018-08-31T15:11:33.052Z,30.10
2018-08-31T15:14:02.416Z,30.46
2018-08-31T15:16:32.479Z,30.98
2018-08-31T15:19:02.181Z,30.29
2018-08-31T15:21:31.646Z,30.89
2018-08-31T15:24:01.245Z,31.57
2018-08-31T15:26:30.582Z,32.76
2018-08-31T15:28:59.952Z,33.67
2018-08-31T15:31:29.393Z,33.89
2018-08-31T15:33:58.714Z,33.83
2018-08-31T15:36:28.018Z,34.57
2018-08-31T15:38:57.851Z,34.01
2018-08-31T15:41:27.270Z,34.40
2018-08-31T15:43:57.720Z,34.53
2018-08-31T15:46:27.374Z,35.67
2018-08-31T15:48:56.871Z,35.05
2018-08-31T15:51:26.390Z,35.08
2018-08-31T15:53:56.710Z,36.22
2018-08-31T15:56:26.349Z,35.70
2018-08-31T15:58:56.701Z,36.07
2018-08-31T16:01:26.460Z,37.02
2018-08-31T16:03:55.991Z,37.09
2018-08-31T16:06:25.290Z,37.15
2018-08-31T16:08:54.660Z,37.77
2018-08-31T16:11:24.233Z,36.95
2018-08-31T16:13:53.653Z,37.08
2018-08-31T16:16:23.127Z,37.55
2018-08-31T16:18:52.601Z,37.81
2018-08-31T16:21:22.006Z,38.09
2018-08-31T16:23:51.719Z,37.42
2018-08-31T16:26:21.100Z,37.66
2018-08-31T16:28:50.586Z,38.04
2018-08-31T16:31:20.268Z,37.78
2018-08-31T16:33:49.880Z,38.31
2018-08-31T16:36:19.249Z,38.64
2018-08-31T16:38:48.655Z,38.53
2018-08-31T16:41:17.960Z,38.97
2018-08-31T16:43:47.387Z,38.63
2018-08-31T16:46:17.102Z,38.76
2018-08-31T16:48:46.711Z,38.99
2018-08-31T16:51:16.120Z,40.36
2018-08-31T16:53:45.848Z,41.12
2018-08-31T16:56:15.314Z,41.49
2018-08-31T16:58:44.716Z,42.25
2018-08-31T17:01:14.194Z,42.03
2018-08-31T17:03:43.547Z,42.19
2018-08-31T17:06:13.251Z,42.87
2018-08-31T17:08:43.140Z,43.05
2018-08-31T17:11:12.570Z,42.72
2018-08-31T17:13:41.910Z,42.97
2018-08-31T17:16:11.439Z,43.47
2018-08-31T17:18:40.783Z,44.35
2018-08-31T17:21:10.142Z,44.83
2018-08-31T17:23:39.554Z,44.30
2018-08-31T17:26:13.198Z,45.08
2018-08-31T17:28:48.164Z,44.62
2018-08-31T17:31:22.752Z,46.00
2018-08-31T17:33:57.476Z,46.12
2018-08-31T17:36:32.032Z,45.66
2018-08-31T17:39:01.428Z,45.71
2018-08-31T17:41:30.939Z,46.40
2018-08-31T17:44:00.412Z,46.10
2018-08-31T17:46:30.818Z,46.67
2018-08-31T17:49:00.174Z,47.46
2018-08-31T17:51:30.818Z,47.13
2018-08-31T17:54:00.368Z,47.68
2018-08-31T17:56:30.015Z,48.57
2018-08-31T17:58:59.343Z,48.38
2018-08-31T18:01:28.855Z,49.39
2018-08-31T18:03:58.322Z,49.52
2018-08-31T18:06:29.118Z,50.30
2018-08-31T18:08:58.559Z,50.52
2018-08-31T18:11:28.819Z,50.47
2018-08-31T18:13:58.210Z,50.64
2018-08-31T18:16:28.726Z,50.74
2018-08-31T18:18:58.180Z,51.89
2018-08-31T18:21:31.406Z,51.21
2018-08-31T18:24:00.885Z,51.40
2018-08-31T18:26:30.234Z,51.27
2018-08-31T18:28:59.580Z,52.33
2018-08-31T18:31:29.051Z,52.65
2018-08-31T18:33:58.408Z,52.49
2018-08-31T18:36:27.932Z,52.54
2018-08-31T18:38:57.630Z,51.94
2018-08-31T18:41:27.276Z,52.29
2018-08-31T18:43:56.919Z,53.48
2018-08-31T18:46:26.553Z,53.31
2018-08-31T18:48:56.036Z,53.67
2018-08-31T18:51:25.686Z,54.36
2018-08-31T18:53:55.125Z,53.89
2018-08-31T18:56:24.542Z,53.96
2018-08-31T18:58:54.171Z,54.49
2018-08-31T19:01:24.499Z,53.95
2018-08-31T19:03:54.013Z,54.91
2018-08-31T19:06:23.624Z,54.74
2018-08-31T19:08:53.238Z,55.56
2018-08-31T19:11:22.752Z,55.24
2018-08-31T19:13:52.257Z,55.06
2018-08-31T19:16:21.750Z,54.96
2018-08-31T19:18:51.760Z,55.84
2018-08-31T19:21:21.288Z,55.59
2018-08-31T19:23:50.834Z,55.43
2018-08-31T19:26:20.289Z,55.69
2018-08-31T19:28:51.027Z,56.01
2018-08-31T19:31:20.581Z,56.61
2018-08-31T19:33:50.984Z,56.48
2018-08-31T19:36:20.813Z,56.53
2018-08-31T19:38:50.478Z,55.92
2018-08-31T19:41:20.032Z,56.04
2018-08-31T19:43:49.637Z,56.59
2018-08-31T19:46:19.213Z,56.98
2018-08-31T19:48:48.834Z,56.87
2018-08-31T19:51:18.461Z,56.64
2018-08-31T19:53:47.945Z,57.79
2018-08-31T19:56:17.316Z,57.50
2018-08-31T19:58:46.900Z,58.46
2018-08-31T20:01:16.395Z,58.08
2018-08-31T20:03:46.337Z,58.01
2018-08-31T20:06:15.883Z,58.06
2018-08-31T20:08:45.536Z,57.68
2018-08-31T20:11:14.984Z,58.20
2018-08-31T20:13:44.915Z,58.22
2018-08-31T20:16:14.406Z,57.71
2018-08-31T20:18:43.814Z,59.21
2018-08-31T20:21:13.425Z,58.30
2018-08-31T20:23:42.996Z,59.53
2018-08-31T20:26:12.381Z,58.76
2018-08-31T20:28:41.875Z,58.74
2018-08-31T20:31:11.451Z,58.68
2018-08-31T20:33:41.023Z,57.86
2018-08-31T20:36:10.993Z,58.51
2018-08-31T20:38:40.603Z,58.54
2018-08-31T20:41:10.000Z,58.11
2018-08-31T20:43:39.742Z,58.40
2018-08-31T20:46:09.157Z,58.85
2018-08-31T20:48:38.798Z,58.52
2018-08-31T20:51:08.271Z,59.71
2018-08-31T20:53:37.765Z,59.30
2018-08-31T20:56:07.259Z,58.95
2018-08-31T20:58:36.909Z,58.81
2018-08-31T21:01:06.354Z,59.53
2018-08-31T21:03:36.060Z,60.15
2018-08-31T21:06:05.575Z,59.71
2018-08-31T21:08:35.010Z,59.22
2018-08-31T21:11:04.372Z,59.63
2018-08-31T21:13:33.811Z,59.45
2018-08-31T21:16:03.335Z,60.09
2018-08-31T21:18:32.680Z,59.45
2018-08-31T21:21:02.294Z,60.61
2018-08-31T21:23:31.609Z,60.49
2018-08-31T21:26:00.895Z,60.30
2018-08-31T21:28:30.223Z,60.09
2018-08-31T21:30:59.575Z,61.78
2018-08-31T21:33:28.965Z,61.27
2018-08-31T21:35:58.347Z,61.15
2018-08-31T21:38:27.729Z,61.34
2018-08-31T21:40:57.200Z,61.48
2018-08-31T21:43:27.130Z,61.29
2018-08-31T21:45:56.584Z,61.50
2018-08-31T21:48:25.961Z,62.29
2018-08-31T21:50:55.398Z,61.90
2018-08-31T21:53:24.870Z,61.89
2018-08-31T21:55:54.331Z,62.42
2018-08-31T21:58:23.878Z,62.13
2018-08-31T22:00:57.440Z,62.50
2018-08-31T22:03:27.244Z,62.27
2018-08-31T22:05:56.851Z,62.77
2018-08-31T22:08:26.323Z,63.04
2018-08-31T22:10:55.733Z,63.23
2018-08-31T22:13:25.204Z,63.35
2018-08-31T22:15:55.870Z,65.28
2018-08-31T22:18:25.363Z,65.40
2018-08-31T22:20:54.769Z,64.96
2018-08-31T22:23:24.318Z,64.55
2018-08-31T22:25:55.892Z,64.19
2018-08-31T22:28:26.323Z,64.45
2018-08-31T22:30:56.424Z,63.78
2018-08-31T22:33:26.103Z,64.24
2018-08-31T22:35:55.987Z,64.04
2018-08-31T22:38:25.334Z,64.07
2018-08-31T22:40:54.870Z,64.97
2018-08-31T22:43:30.605Z,64.61
2018-08-31T22:46:00.086Z,65.34
2018-08-31T22:48:29.467Z,65.00
2018-08-31T22:50:59.765Z,64.27
2018-08-31T22:53:29.267Z,65.53
2018-08-31T22:55:59.416Z,65.64
2018-08-31T22:58:29.109Z,65.58
2018-08-31T23:00:58.960Z,65.44
2018-08-31T23:03:28.706Z,65.36
2018-08-31T23:05:58.587Z,65.88
2018-08-31T23:08:27.990Z,65.90
2018-08-31T23:10:57.321Z,66.59
2018-08-31T23:13:26.692Z,66.19
2018-08-31T23:15:56.095Z,66.39
2018-08-31T23:18:25.431Z,66.20
2018-08-31T23:20:54.793Z,66.32
2018-08-31T23:23:33.206Z,66.64
2018-08-31T23:26:02.859Z,65.98
2018-08-31T23:28:32.256Z,66.27
2018-08-31T23:31:01.900Z,66.03
2018-08-31T23:33:31.366Z,65.32
2018-08-31T23:36:00.744Z,66.67
2018-08-31T23:38:30.107Z,66.36
2018-08-31T23:40:59.501Z,66.88
2018-08-31T23:43:28.940Z,66.24
2018-08-31T23:45:58.463Z,66.90
2018-08-31T23:48:28.058Z,67.74
2018-08-31T23:50:57.414Z,67.08
2018-08-31T23:53:26.849Z,68.05
2018-08-31T23:55:56.337Z,68.30
2018-08-31T23:58:25.664Z,67.94
